Airport View

Enter AWOS ICAO identifier for current METAR.

ex. KFNL

KCQB 221855Z AUTO 04011G17KT 10SM SCT030 SCT039 OVC047 28/20 A3013 RMK AO2

22 Jul 2019 19:07

Frequency: 119.275

Phone: 405-258-6724

Other Area AWOS: KCUH - KSNL - KSRE - KSWO

TAF KTIK 221700Z 2217/2323 01015G20KT 9999 FEW020 SCT040 QNH3010INS BECMG 2300/2301 04009KT 9999 FEW060 QNH3011INS BECMG 2314/2315 05012KT 9999 FEW040 QNH3015INS TX28/2223Z TN18/2312Z